Bei Facebook empfehlenBei Twitter postenGoogle plusPinterest

Das Wetter im Erzgebirge am 24.03.2016

Wetter und Klima am 24.03.2016 Holzhau im Erzgebirge (630m ü.NN)
Letzte gemessene Temperatur und Uhrzeit der Messung23:45:00 Uhr-0.80 °C
Temperatur (Maximum / Höchstwert) und Uhrzeit der Messung16:30:00 Uhr6.90 °C
Temperatur (Minimum / Tiefstwert) und Uhrzeit der Messung21:15:00-1.50 °C
Errechneter Absolutwert der Temperaturschwankungen zwischen Tmin und Tmax des Tages8.40 K
Errechnete Tagesmitteltemperatur1.86354 °C
Gesamt - Niederschlag des Tages (in flüssiger Form)0.00 Liter / m²
Luftdruck (Maximum / Höchstwert) und Zeitpunkt der Messung21:45:00 Uhr1009.90 hPa
Luftdruck (Minimum / Tiefstwert) und Zeitpunkt der Messung00:15:00 Uhr1004.40 hPa
Errechneter Absolutwert der Luftdruckschwankungen des Tages5.50 hPa
Höchste gemessene Windgeschwindigkeit und Uhrzeit der Messung03:15:00 Uhr183.60 km/h
Errechnete Windhäufigkeit in Relation zu den Messwerten des Tages18.75000 %
Niedrigste Windkühle (Windchill) und Zeitpunkt der Messung03:15:00 Uhr-11.70 °C
Taupunkt (Maximum / Höchstwert) und Uhrzeit der Messung11:45:00 Uhr3.60 °C
Taupunkt (Minimum / Tiefstwert) und Uhrzeit der Messung21:15:00-3.80 °C
Anzahl der automatisch eingelesenen Messwerte 96

Detaillierte Wetter- und Klima- Messwerte für den 24.03.2016 in Holzhau im Erzgebirge (630m ü.NN)
ZeitTemperaturLuftdruckRel. LuftfeuchteWindWindrichtungWindchillTaupunktNiederschlag l/m²
23:45:00-0.80 °C1009.50 hPa89.00 %-2.60 °C 
23:30:00-1.10 °C1009.60 hPa89.00 %-2.90 °C 
23:15:00-1.20 °C1009.70 hPa88.00 %-3.10 °C 
23:00:00-1.10 °C1009.80 hPa88.00 %-3.00 °C 
22:45:00-0.80 °C1009.60 hPa88.00 %-2.70 °C 
22:30:00-0.70 °C1009.70 hPa88.00 %-2.60 °C 
22:15:00-0.80 °C1009.70 hPa88.00 %-2.70 °C 
22:00:00-1.00 °C1009.80 hPa87.00 %-3.10 °C 
21:45:00-1.20 °C1009.90 hPa87.00 %-3.30 °C 
21:30:00-1.40 °C1009.80 hPa86.00 %-3.70 °C 
21:15:00-1.50 °C1009.90 hPa86.00 %-3.80 °C 
21:00:00-1.20 °C1009.90 hPa85.00 %5.40 km/hSO-3.10 °C-3.70 °C 
20:45:00-1.10 °C1009.90 hPa84.00 %4.32 km/hSO-1.10 °C-3.70 °C 
20:30:00-0.80 °C1009.90 hPa84.00 %-3.40 °C 
20:15:00-0.50 °C1009.90 hPa83.00 %-3.30 °C 
20:00:00-0.20 °C1009.90 hPa83.00 %-3.00 °C 
19:45:00-0.10 °C1009.80 hPa82.00 %-3.10 °C 
19:30:00-0.10 °C1009.80 hPa81.00 %-3.30 °C 
19:15:000.10 °C1009.70 hPa79.00 %-3.10 °C 
19:00:000.50 °C1009.80 hPa78.00 %-2.90 °C 
18:45:000.80 °C1009.70 hPa77.00 %-2.80 °C 
18:30:001.30 °C1009.70 hPa75.00 %-2.60 °C 
18:15:002.10 °C1009.60 hPa72.00 %-2.40 °C 
18:00:003.10 °C1009.50 hPa70.00 %-1.80 °C 
17:45:004.30 °C1009.30 hPa68.00 %-1.10 °C 
17:30:005.20 °C1009.30 hPa67.00 %-0.40 °C 
17:15:006.10 °C1009.20 hPa66.00 %0.20 °C 
17:00:006.70 °C1009.20 hPa67.00 %1.00 °C 
16:45:006.40 °C1009.40 hPa66.00 %0.50 °C 
16:30:006.90 °C1009.20 hPa65.00 %8.64 km/hNNO5.20 °C0.80 °C 
16:15:006.50 °C1009.50 hPa65.00 %0.40 °C 
16:00:006.40 °C1009.50 hPa65.00 %0.30 °C 
15:45:006.70 °C1009.40 hPa65.00 %0.60 °C 
15:30:006.60 °C1009.40 hPa68.00 %1.10 °C 
15:15:006.60 °C1009.30 hPa69.00 %1.30 °C 
15:00:006.50 °C1009.10 hPa72.00 %1.80 °C 
14:45:006.50 °C1009.30 hPa74.00 %2.20 °C 
14:30:006.20 °C1008.90 hPa76.00 %2.30 °C 
14:15:005.20 °C1008.90 hPa78.00 %5.04 km/hSSW4.30 °C1.70 °C 
14:00:005.00 °C1008.90 hPa80.00 %1.80 °C 
13:45:005.40 °C1009.00 hPa81.00 %2.40 °C 
13:30:004.80 °C1009.00 hPa83.00 %2.20 °C 
13:15:004.40 °C1009.00 hPa84.00 %9.72 km/hW2.00 °C1.90 °C 
13:00:004.60 °C1008.90 hPa86.00 %2.50 °C 
12:45:003.90 °C1009.10 hPa87.00 %1.90 °C 
12:30:004.40 °C1009.00 hPa89.00 %2.80 °C 
12:15:003.30 °C1009.00 hPa89.00 %1.70 °C 
12:00:003.90 °C1008.90 hPa90.00 %5.76 km/hNNW2.50 °C2.40 °C 
11:45:004.60 °C1008.80 hPa93.00 %8.28 km/hWNW2.60 °C3.60 °C 
11:30:003.80 °C1008.90 hPa93.00 %2.80 °C 
11:15:003.60 °C1008.70 hPa94.00 %2.70 °C 
11:00:003.20 °C1008.60 hPa95.00 %8.64 km/hNW0.80 °C2.50 °C 
10:45:002.10 °C1008.50 hPa94.00 %7.92 km/hNNW-0.20 °C1.20 °C 
10:30:002.50 °C1008.60 hPa95.00 %1.80 °C 
10:15:001.60 °C1008.50 hPa95.00 %0.90 °C 
10:00:000.90 °C1008.60 hPa95.00 %0.20 °C 
09:45:000.50 °C1008.40 hPa94.00 %-0.40 °C 
09:30:000.40 °C1008.30 hPa94.00 %-0.50 °C 
09:15:000.40 °C1008.10 hPa94.00 %-0.50 °C 
09:00:000.40 °C1007.90 hPa94.00 %-0.50 °C 
08:45:000.50 °C1007.80 hPa94.00 %-0.40 °C 
08:30:000.80 °C1007.60 hPa95.00 %0.10 °C 
08:15:000.70 °C1007.40 hPa94.00 %-0.20 °C 
08:00:000.50 °C1007.50 hPa94.00 %-0.40 °C 
07:45:000.40 °C1007.10 hPa94.00 %-0.50 °C 
07:30:000.40 °C1007.00 hPa94.00 %4.68 km/hNW0.40 °C-0.50 °C 
07:15:000.40 °C1006.90 hPa94.00 %-0.50 °C 
07:00:000.50 °C1006.70 hPa94.00 %5.40 km/hWNW-1.20 °C-0.40 °C 
06:45:000.50 °C1006.60 hPa94.00 %-0.40 °C 
06:30:000.60 °C1006.20 hPa94.00 %-0.30 °C 
06:15:000.60 °C1006.00 hPa94.00 %7.92 km/hWNW-2.00 °C-0.30 °C 
06:00:000.60 °C1006.00 hPa94.00 %5.04 km/hWNW-0.90 °C-0.30 °C 
05:45:000.60 °C1005.90 hPa94.00 %-0.30 °C 
05:30:000.70 °C1005.80 hPa94.00 %-0.20 °C 
05:15:000.70 °C1005.80 hPa94.00 %-0.20 °C 
05:00:000.70 °C1005.60 hPa94.00 %-0.20 °C 
04:45:000.80 °C1005.30 hPa94.00 %-0.10 °C 
04:30:000.80 °C1005.30 hPa94.00 %-0.10 °C 
04:15:000.80 °C1005.20 hPa94.00 %-0.10 °C 
04:00:000.80 °C1005.30 hPa94.00 %-0.10 °C 
03:45:000.80 °C1005.10 hPa94.00 %-0.10 °C 
03:30:000.90 °C1005.00 hPa94.00 %0.00 °C 
03:15:000.90 °C1005.00 hPa94.00 %183.60 km/hNNW-11.70 °C0.00 °C 
03:00:001.10 °C1004.90 hPa94.00 %0.20 °C 
02:45:001.20 °C1004.90 hPa94.00 %0.30 °C 
02:30:001.30 °C1005.00 hPa94.00 %13.68 km/hWSW-2.60 °C0.40 °C 
02:15:001.30 °C1004.90 hPa94.00 %0.40 °C 
02:00:001.30 °C1004.80 hPa94.00 %10.80 km/hNO-2.00 °C0.40 °C 
01:45:001.10 °C1004.50 hPa94.00 %8.64 km/hN-1.60 °C0.20 °C 
01:30:001.00 °C1004.50 hPa94.00 %0.10 °C 
01:15:001.20 °C1004.50 hPa94.00 %0.30 °C 
01:00:001.10 °C1004.60 hPa94.00 %0.20 °C 
00:45:001.00 °C1004.60 hPa94.00 %183.60 km/hWNW-11.50 °C0.10 °C 
00:30:001.00 °C1004.60 hPa94.00 %0.10 °C 
00:15:001.20 °C1004.40 hPa93.00 %0.20 °C 
00:00:001.30 °C1004.40 hPa93.00 %0.30 °C 

Permanenter Link zu dieser Seite: Wetter im Erzgebirge am 24.03.2016
Performance-Info: Die Erstellung der Seite / Statistik(en) / Tabelle(n) erforderte 5 Datenbankserver-Abfrage(n) und dauerte 96 Millisekunden. (Dieser Messwert ist von der Gesamt-Auslastung des Servers abhängig.)
Erzgebirge - Wetter | Erzgebirge - Wetter (Mobilgeräte) | Komplette Klimadatenbank